createdAt,value
2019-05-29T00:01:41.555Z,4.37
2019-05-29T00:04:08.215Z,1.80
2019-05-29T00:06:34.830Z,2.23
2019-05-29T00:09:01.714Z,3.10
2019-05-29T00:11:29.890Z,5.10
2019-05-29T00:13:58.734Z,2.00
2019-05-29T00:16:25.336Z,2.30
2019-05-29T00:18:51.986Z,2.27
2019-05-29T00:21:18.719Z,2.47
2019-05-29T00:23:45.524Z,1.97
2019-05-29T00:26:12.494Z,1.97
2019-05-29T00:28:39.367Z,2.30
2019-05-29T00:31:06.077Z,2.53
2019-05-29T00:33:32.744Z,1.80
2019-05-29T00:35:59.373Z,2.17
2019-05-29T00:38:25.979Z,1.93
2019-05-29T00:40:52.663Z,3.57
2019-05-29T00:43:19.248Z,1.80
2019-05-29T00:45:47.231Z,2.00
2019-05-29T00:48:14.154Z,3.07
2019-05-29T00:50:40.811Z,2.47
2019-05-29T00:53:08.080Z,3.47
2019-05-29T00:55:35.664Z,1.97
2019-05-29T00:58:02.238Z,2.93
2019-05-29T01:00:28.933Z,2.27
2019-05-29T01:02:55.673Z,2.37
2019-05-29T01:05:22.643Z,5.07
2019-05-29T01:07:49.345Z,2.03
2019-05-29T01:10:16.776Z,3.23
2019-05-29T01:12:43.631Z,2.00
2019-05-29T01:15:11.270Z,3.73
2019-05-29T01:17:38.134Z,3.17
2019-05-29T01:20:05.975Z,3.40
2019-05-29T01:22:32.717Z,2.93
2019-05-29T01:24:59.400Z,3.03
2019-05-29T01:27:28.088Z,3.37
2019-05-29T01:29:54.612Z,2.60
2019-05-29T01:32:21.656Z,2.90
2019-05-29T01:34:48.628Z,2.20
2019-05-29T01:37:16.093Z,2.37
2019-05-29T01:39:43.079Z,2.20
2019-05-29T01:42:10.546Z,2.30
2019-05-29T01:44:37.226Z,2.57
2019-05-29T01:47:03.996Z,3.40
2019-05-29T01:49:30.907Z,2.60
2019-05-29T01:51:57.794Z,4.13
2019-05-29T01:54:24.492Z,5.83
2019-05-29T01:56:51.128Z,2.40
2019-05-29T01:59:17.824Z,3.43
2019-05-29T02:01:44.767Z,2.60
2019-05-29T05:39:51.953Z,2.40
2019-05-29T05:42:18.676Z,2.03
2019-05-29T05:44:48.203Z,1.83
2019-05-29T05:47:14.777Z,1.63
2019-05-29T05:49:41.845Z,1.63
2019-05-29T05:52:08.515Z,1.33
2019-05-29T05:54:35.401Z,1.30
2019-05-29T05:57:02.288Z,0.93
2019-05-29T05:59:29.002Z,3.13
2019-05-29T06:01:56.073Z,1.37
2019-05-29T06:04:22.734Z,2.50
2019-05-29T06:06:49.325Z,1.10
2019-05-29T06:09:15.928Z,1.07
2019-05-29T06:11:42.745Z,1.63
2019-05-29T06:14:09.435Z,1.00
2019-05-29T06:16:36.480Z,0.80
2019-05-29T06:19:03.460Z,0.40
2019-05-29T06:21:30.084Z,0.67
2019-05-29T06:23:56.837Z,1.90
2019-05-29T06:26:23.900Z,1.80
2019-05-29T06:28:50.463Z,1.87
2019-05-29T06:31:17.177Z,2.00
2019-05-29T06:33:44.797Z,1.07
2019-05-29T06:36:11.563Z,0.60
2019-05-29T06:38:38.181Z,0.77
2019-05-29T06:41:04.919Z,0.77
2019-05-29T06:43:31.494Z,1.53
2019-05-29T06:45:59.724Z,0.50
2019-05-29T06:48:41.758Z,0.72
2019-05-29T06:50:57.510Z,0.67
2019-05-29T06:53:25.613Z,1.70
2019-05-29T06:55:54.481Z,1.03
2019-05-29T06:58:21.407Z,2.23
2019-05-29T07:00:48.044Z,1.47
2019-05-29T07:03:15.121Z,0.70
2019-05-29T07:05:46.617Z,1.27
2019-05-29T07:08:19.047Z,0.93
2019-05-29T07:10:40.293Z,1.00
2019-05-29T07:13:07.241Z,1.75
2019-05-29T07:15:33.841Z,1.00
2019-05-29T07:18:00.540Z,0.85
2019-05-29T07:20:27.638Z,1.62
2019-05-29T07:22:54.414Z,0.88
2019-05-29T07:25:21.194Z,0.53
2019-05-29T07:27:47.768Z,1.90
2019-05-29T07:30:14.643Z,0.60
2019-05-29T07:32:43.215Z,2.50
2019-05-29T07:35:10.679Z,0.68
2019-05-29T07:37:37.817Z,0.90
2019-05-29T07:40:05.766Z,0.70
2019-05-29T07:42:32.409Z,0.62
2019-05-29T07:44:59.075Z,2.05
2019-05-29T07:47:25.826Z,1.42
2019-05-29T07:49:52.519Z,0.60
2019-05-29T07:52:19.186Z,0.53
2019-05-29T07:54:48.036Z,0.98
2019-05-29T07:58:09.894Z,0.85
2019-05-29T08:00:58.744Z,1.00
2019-05-29T08:03:05.571Z,1.73
2019-05-29T08:05:32.351Z,2.42
2019-05-29T08:07:59.102Z,0.60
2019-05-29T08:10:26.014Z,2.02
2019-05-29T08:12:55.572Z,1.60
2019-05-29T08:15:21.544Z,0.50
2019-05-29T08:17:48.471Z,0.80
2019-05-29T08:20:15.893Z,0.68
2019-05-29T08:22:42.556Z,1.17
2019-05-29T08:25:09.301Z,1.02
2019-05-29T08:27:35.927Z,0.60
2019-05-29T08:30:03.866Z,1.12
2019-05-29T08:32:30.507Z,1.05
2019-05-29T08:34:57.097Z,1.80
2019-05-29T08:37:25.696Z,1.87
2019-05-29T08:39:52.527Z,1.60
2019-05-29T08:42:23.359Z,1.22
2019-05-29T08:44:47.934Z,1.27
2019-05-29T08:47:15.041Z,1.50
2019-05-29T08:49:47.228Z,1.57
2019-05-29T08:52:12.708Z,1.47
2019-05-29T08:54:39.446Z,2.35
2019-05-29T08:57:06.344Z,1.42
2019-05-29T08:59:33.028Z,2.90
2019-05-29T09:01:59.681Z,0.90
2019-05-29T09:04:26.295Z,0.98
2019-05-29T09:06:53.540Z,1.77
2019-05-29T09:09:20.320Z,0.70
2019-05-29T09:11:47.627Z,0.90
2019-05-29T09:14:14.402Z,1.80
2019-05-29T09:16:41.011Z,1.57
2019-05-29T09:19:07.702Z,1.37
2019-05-29T09:21:34.866Z,2.15
2019-05-29T09:24:01.489Z,1.00
2019-05-29T09:26:28.453Z,0.85
2019-05-29T09:28:55.045Z,0.60
2019-05-29T09:31:22.187Z,1.42
2019-05-29T09:33:48.968Z,1.13
2019-05-29T09:36:17.034Z,1.62
2019-05-29T09:38:44.039Z,1.97
2019-05-29T09:41:10.617Z,1.37
2019-05-29T09:43:37.194Z,1.20
2019-05-29T09:46:03.875Z,1.93
2019-05-29T09:48:30.525Z,2.77
2019-05-29T09:50:57.139Z,1.57
2019-05-29T09:53:23.783Z,0.80
2019-05-29T09:55:50.420Z,1.17
2019-05-29T09:58:17.434Z,0.87
2019-05-29T10:00:44.789Z,0.70
2019-05-29T10:03:12.346Z,1.43
2019-05-29T10:05:39.105Z,1.27
2019-05-29T10:08:05.913Z,1.37
2019-05-29T10:10:32.507Z,1.17
2019-05-29T10:13:02.813Z,5.20
2019-05-29T10:15:30.475Z,1.52
2019-05-29T10:17:58.431Z,1.52
2019-05-29T10:20:25.488Z,0.80
2019-05-29T10:22:52.068Z,0.90
2019-05-29T10:25:18.837Z,1.75
2019-05-29T10:27:45.486Z,1.77
2019-05-29T10:30:12.933Z,0.62
2019-05-29T10:32:39.902Z,0.60
2019-05-29T10:35:06.760Z,1.00
2019-05-29T10:37:33.360Z,0.62
2019-05-29T10:40:00.018Z,0.70
2019-05-29T10:42:26.740Z,0.70
2019-05-29T10:44:53.370Z,0.70
2019-05-29T10:47:20.106Z,0.72
2019-05-29T10:49:47.660Z,0.57
2019-05-29T10:52:17.234Z,0.85
2019-05-29T10:54:44.027Z,0.98
2019-05-29T10:57:10.767Z,0.40
2019-05-29T10:59:37.471Z,0.53
2019-05-29T11:02:04.277Z,0.72
2019-05-29T11:04:31.625Z,1.00
2019-05-29T11:06:58.295Z,1.12
2019-05-29T11:09:25.011Z,1.40
2019-05-29T11:11:53.233Z,0.57
2019-05-29T11:14:20.474Z,0.65
2019-05-29T11:16:47.171Z,2.37
2019-05-29T11:19:13.838Z,0.60
2019-05-29T11:21:40.649Z,0.70
2019-05-29T11:24:08.169Z,0.75
2019-05-29T11:26:34.838Z,0.90
2019-05-29T11:29:01.739Z,1.27
2019-05-29T11:31:28.490Z,2.20
2019-05-29T11:33:55.156Z,1.10
2019-05-29T11:36:21.848Z,0.93
2019-05-29T11:38:48.432Z,1.05
2019-05-29T11:41:25.991Z,1.12
2019-05-29T11:43:43.726Z,0.57
2019-05-29T11:46:12.106Z,0.50
2019-05-29T11:48:39.875Z,0.40
2019-05-29T11:51:06.960Z,0.50
2019-05-29T11:53:33.649Z,1.27
2019-05-29T11:56:02.846Z,0.68
2019-05-29T11:58:31.800Z,0.60
2019-05-29T12:00:59.208Z,0.98
2019-05-29T12:03:26.019Z,0.80
2019-05-29T12:05:53.504Z,0.70
2019-05-29T12:08:20.340Z,0.62
2019-05-29T12:10:46.934Z,0.78
2019-05-29T12:13:13.995Z,1.17
2019-05-29T12:15:40.614Z,0.70
2019-05-29T12:18:22.739Z,0.70
2019-05-29T12:20:36.191Z,0.60
2019-05-29T12:23:25.615Z,1.65
2019-05-29T12:25:31.514Z,0.80
2019-05-29T12:27:59.239Z,1.12
2019-05-29T12:30:26.357Z,0.78
2019-05-29T12:32:53.049Z,0.53
2019-05-29T12:35:19.638Z,0.40
2019-05-29T12:37:46.320Z,0.50
2019-05-29T12:40:13.476Z,0.53
2019-05-29T12:42:44.507Z,0.57
2019-05-29T12:45:10.975Z,0.50
2019-05-29T12:47:37.717Z,0.72
2019-05-29T12:50:06.709Z,0.40
2019-05-29T12:52:33.285Z,0.40
2019-05-29T12:55:00.116Z,0.40
2019-05-29T12:57:28.582Z,0.60
2019-05-29T12:59:57.988Z,0.60
2019-05-29T13:02:24.762Z,0.53
2019-05-29T13:05:16.029Z,0.50
2019-05-29T13:07:23.415Z,0.40
2019-05-29T13:09:50.768Z,0.40
2019-05-29T13:12:17.474Z,0.75
2019-05-29T13:14:44.049Z,0.88
2019-05-29T13:17:11.180Z,0.68
2019-05-29T13:19:38.153Z,0.72
2019-05-29T13:22:06.505Z,0.55
2019-05-29T13:24:33.208Z,0.60
2019-05-29T13:27:01.744Z,0.40
2019-05-29T13:29:28.545Z,1.00
2019-05-29T13:31:57.122Z,0.60
2019-05-29T13:34:27.014Z,0.95
2019-05-29T13:36:59.817Z,0.30
2019-05-29T13:39:23.270Z,0.42
2019-05-29T13:41:49.879Z,0.70
2019-05-29T13:44:16.490Z,0.30
2019-05-29T13:46:43.143Z,0.60
2019-05-29T13:49:09.892Z,0.50
2019-05-29T13:51:36.466Z,0.37
2019-05-29T13:54:11.035Z,0.78
2019-05-29T13:56:32.140Z,0.80
2019-05-29T13:58:59.900Z,0.75
2019-05-29T14:01:26.525Z,0.70
2019-05-29T14:03:53.253Z,0.60
2019-05-29T14:06:19.857Z,0.90
2019-05-29T14:08:46.925Z,0.90
2019-05-29T14:11:14.011Z,1.35
2019-05-29T14:13:40.629Z,0.95
2019-05-29T14:16:08.504Z,0.68
2019-05-29T14:18:35.269Z,0.70
2019-05-29T14:21:03.128Z,0.60
2019-05-29T14:23:30.059Z,0.80
2019-05-29T14:25:56.832Z,0.62
2019-05-29T14:28:23.525Z,0.50
2019-05-29T14:30:50.435Z,2.20
2019-05-29T14:33:17.104Z,1.02
2019-05-29T14:35:44.010Z,1.02
2019-05-29T14:38:14.554Z,0.45
2019-05-29T14:40:39.790Z,0.50
2019-05-29T14:43:10.149Z,0.70
2019-05-29T14:45:35.320Z,0.62
2019-05-29T14:48:02.216Z,1.35
2019-05-29T14:50:28.948Z,0.90
2019-05-29T14:52:56.223Z,1.98
2019-05-29T14:55:22.884Z,1.62
2019-05-29T14:57:49.569Z,0.95
2019-05-29T15:00:24.716Z,0.85
2019-05-29T15:02:45.717Z,1.32
2019-05-29T15:05:15.039Z,0.82
2019-05-29T15:07:42.264Z,0.60
2019-05-29T15:10:23.895Z,0.50
2019-05-29T15:12:38.428Z,0.50
2019-05-29T15:15:06.721Z,0.53
2019-05-29T15:17:33.416Z,0.40
2019-05-29T15:20:00.157Z,0.40
2019-05-29T15:22:26.929Z,0.40
2019-05-29T15:25:03.198Z,0.42
2019-05-29T15:27:22.456Z,0.40
2019-05-29T15:29:50.101Z,0.90
2019-05-29T15:32:17.172Z,0.42
2019-05-29T15:34:47.282Z,0.47
2019-05-29T15:37:16.973Z,0.60
2019-05-29T15:39:42.833Z,0.30
2019-05-29T15:42:10.805Z,0.47
2019-05-29T15:44:37.605Z,0.40
2019-05-29T15:47:04.350Z,0.28
2019-05-29T15:49:31.009Z,0.37
2019-05-29T15:51:57.669Z,0.35
2019-05-29T15:54:24.230Z,0.28
2019-05-29T15:56:50.944Z,0.37
2019-05-29T15:59:19.160Z,0.55
2019-05-29T16:01:46.008Z,0.20
2019-05-29T16:04:13.783Z,0.28
2019-05-29T16:06:40.439Z,0.42
2019-05-29T16:09:08.176Z,0.30
2019-05-29T16:11:35.244Z,0.82
2019-05-29T16:14:02.008Z,0.23
2019-05-29T16:16:28.622Z,0.28
2019-05-29T16:18:55.245Z,0.30
2019-05-29T16:21:23.038Z,0.20
2019-05-29T16:23:50.083Z,0.20
2019-05-29T16:26:18.282Z,0.30
2019-05-29T16:28:45.629Z,0.30
2019-05-29T16:31:12.550Z,0.30
2019-05-29T16:33:39.399Z,0.20
2019-05-29T16:36:06.027Z,0.35
2019-05-29T16:38:33.684Z,0.20
2019-05-29T16:41:00.320Z,0.20
2019-05-29T16:43:26.946Z,0.47
2019-05-29T16:45:53.548Z,0.50
2019-05-29T16:48:20.671Z,0.45
2019-05-29T16:50:47.546Z,1.00
2019-05-29T16:53:14.695Z,0.20
2019-05-29T16:55:53.547Z,0.13
2019-05-29T16:58:10.516Z,0.30
2019-05-29T17:00:37.291Z,0.30
2019-05-29T17:03:04.063Z,0.30
2019-05-29T17:05:30.754Z,0.20
2019-05-29T17:07:57.439Z,0.75
2019-05-29T17:10:34.011Z,0.37
2019-05-29T17:13:00.633Z,0.30
2019-05-29T17:15:29.088Z,0.40
2019-05-29T17:17:55.846Z,0.30
2019-05-29T17:20:37.152Z,0.20
2019-05-29T17:23:04.133Z,0.30
2019-05-29T17:25:30.769Z,0.20
2019-05-29T17:27:57.428Z,0.45
2019-05-29T17:30:29.394Z,0.40
2019-05-29T17:32:56.198Z,0.15
2019-05-29T17:35:25.221Z,0.47
2019-05-29T17:37:52.281Z,0.23
2019-05-29T17:40:19.213Z,0.30
2019-05-29T17:42:45.778Z,0.20
2019-05-29T17:45:19.595Z,0.33
2019-05-29T17:47:44.471Z,0.20
2019-05-29T17:50:11.720Z,0.20
2019-05-29T17:52:38.399Z,0.20
2019-05-29T17:55:05.294Z,2.17
2019-05-29T17:57:32.610Z,0.50
2019-05-29T18:00:00.214Z,0.28
2019-05-29T18:02:26.896Z,0.30
2019-05-29T18:04:53.759Z,0.45
2019-05-29T18:07:24.704Z,0.30
2019-05-29T18:09:51.473Z,0.20
2019-05-29T18:12:19.190Z,0.33
2019-05-29T18:14:46.455Z,0.50
2019-05-29T18:17:13.066Z,1.17
2019-05-29T18:19:39.754Z,0.10
2019-05-29T18:22:09.519Z,0.10
2019-05-29T18:24:36.116Z,0.30
2019-05-29T18:27:02.946Z,0.30
2019-05-29T18:29:29.832Z,0.23
2019-05-29T18:31:56.677Z,0.42
2019-05-29T18:34:25.109Z,0.95
2019-05-29T18:36:52.070Z,5.45
2019-05-29T18:39:20.204Z,1.45
2019-05-29T18:41:46.971Z,0.30
2019-05-29T18:44:13.560Z,0.27
2019-05-29T18:46:40.273Z,0.20
2019-05-29T18:49:06.886Z,0.42
2019-05-29T18:51:33.774Z,0.20
2019-05-29T18:54:00.521Z,0.30
2019-05-29T18:56:28.107Z,0.20
2019-05-29T18:58:54.835Z,0.30
2019-05-29T19:01:21.604Z,0.30
2019-05-29T19:03:48.513Z,0.30
2019-05-29T19:06:15.198Z,0.40
2019-05-29T19:08:42.203Z,0.40
2019-05-29T19:11:08.993Z,0.30
2019-05-29T19:13:35.693Z,0.40
2019-05-29T19:16:02.248Z,0.20
2019-05-29T19:18:30.130Z,0.60
2019-05-29T19:20:56.836Z,0.57
2019-05-29T19:23:24.641Z,0.40
2019-05-29T19:25:51.516Z,0.30
2019-05-29T19:28:18.174Z,0.30
2019-05-29T19:30:44.991Z,1.53
2019-05-29T19:33:12.672Z,0.40
2019-05-29T19:35:39.318Z,0.40
2019-05-29T19:38:07.042Z,0.20
2019-05-29T19:40:34.544Z,0.50
2019-05-29T19:43:01.336Z,1.23
2019-05-29T19:45:28.591Z,0.63
2019-05-29T19:47:56.733Z,0.43
2019-05-29T19:50:24.591Z,0.50
2019-05-29T19:52:51.312Z,0.73
2019-05-29T19:55:17.995Z,0.40
2019-05-29T19:57:55.889Z,0.43
2019-05-29T20:00:13.405Z,0.93
2019-05-29T20:02:40.213Z,0.80
2019-05-29T20:05:18.276Z,0.60
2019-05-29T20:07:54.963Z,0.60
2019-05-29T20:10:22.520Z,0.70
2019-05-29T20:12:49.284Z,0.60
2019-05-29T20:15:16.045Z,0.70
2019-05-29T20:17:43.415Z,1.60
2019-05-29T20:20:10.114Z,0.80
2019-05-29T20:22:37.081Z,0.60
2019-05-29T20:25:04.808Z,0.70
2019-05-29T20:27:32.088Z,2.30
2019-05-29T20:29:58.692Z,0.60
2019-05-29T20:32:25.353Z,0.90
2019-05-29T20:34:53.780Z,0.60
2019-05-29T20:37:20.536Z,0.83
2019-05-29T20:39:48.422Z,0.77
2019-05-29T20:42:15.112Z,0.70
2019-05-29T20:44:43.001Z,1.00
2019-05-29T20:47:09.989Z,0.90
2019-05-29T20:49:37.798Z,0.90
2019-05-29T20:52:07.231Z,1.67
2019-05-29T20:54:34.062Z,2.00
2019-05-29T20:57:09.621Z,1.03
2019-05-29T20:59:36.335Z,1.17
2019-05-29T21:02:03.552Z,1.43
2019-05-29T21:04:30.188Z,0.80
2019-05-29T21:06:56.787Z,1.40
2019-05-29T21:09:23.610Z,0.90
2019-05-29T21:11:50.321Z,1.53
2019-05-29T21:14:16.919Z,1.30
2019-05-29T21:16:44.025Z,1.20
2019-05-29T21:19:10.757Z,1.10
2019-05-29T21:21:38.306Z,1.37
2019-05-29T21:24:05.032Z,2.60
2019-05-29T21:26:32.020Z,1.13
2019-05-29T21:28:58.773Z,0.80
2019-05-29T21:31:25.434Z,1.43
2019-05-29T21:33:53.993Z,0.80
2019-05-29T21:36:20.734Z,0.80
2019-05-29T21:38:47.393Z,0.80
2019-05-29T21:41:14.299Z,1.67
2019-05-29T21:43:40.992Z,1.10
2019-05-29T21:46:07.710Z,0.80
2019-05-29T21:48:36.903Z,0.80
2019-05-29T21:51:03.747Z,1.57
2019-05-29T21:53:30.508Z,1.10
2019-05-29T21:55:57.701Z,1.30
2019-05-29T21:58:24.534Z,1.40
2019-05-29T22:00:51.956Z,1.00
2019-05-29T22:03:20.639Z,1.00
2019-05-29T22:05:48.756Z,1.00
2019-05-29T22:08:15.945Z,0.90
2019-05-29T22:10:42.944Z,0.80
2019-05-29T22:13:09.737Z,1.20
2019-05-29T22:15:36.456Z,0.97
2019-05-29T22:18:05.760Z,0.97
2019-05-29T22:20:32.441Z,0.90
2019-05-29T22:22:59.830Z,1.83
2019-05-29T22:25:27.033Z,1.20
2019-05-29T22:27:53.806Z,1.67
2019-05-29T22:30:20.656Z,1.00
2019-05-29T22:32:47.258Z,0.93
2019-05-29T22:35:13.997Z,1.07
2019-05-29T22:37:40.709Z,1.00
2019-05-29T22:40:07.761Z,1.27
2019-05-29T22:42:34.473Z,0.83
2019-05-29T22:45:02.207Z,1.00
2019-05-29T22:47:29.047Z,1.13
2019-05-29T22:49:55.866Z,1.10
2019-05-29T22:52:22.574Z,0.90
2019-05-29T22:54:49.196Z,0.90
2019-05-29T22:57:16.126Z,1.10
2019-05-29T22:59:43.684Z,1.00
2019-05-29T23:02:10.380Z,3.67
2019-05-29T23:04:37.000Z,1.80
2019-05-29T23:07:03.810Z,0.93
2019-05-29T23:09:30.513Z,0.80
2019-05-29T23:11:58.246Z,1.03
2019-05-29T23:14:24.954Z,1.80
2019-05-29T23:16:52.403Z,0.87
2019-05-29T23:19:19.181Z,0.90
2019-05-29T23:21:45.845Z,1.37
2019-05-29T23:24:12.428Z,0.90
2019-05-29T23:26:41.739Z,0.90
2019-05-29T23:29:08.324Z,0.77
2019-05-29T23:31:35.034Z,1.00
2019-05-29T23:34:03.293Z,0.90
2019-05-29T23:36:30.073Z,1.53
2019-05-29T23:38:57.267Z,0.90
2019-05-29T23:41:24.037Z,1.20
2019-05-29T23:43:50.737Z,0.97
2019-05-29T23:46:17.406Z,1.10
2019-05-29T23:48:44.055Z,1.20
2019-05-29T23:51:10.652Z,1.30
2019-05-29T23:53:37.318Z,1.23
2019-05-29T23:56:04.417Z,1.10
2019-05-29T23:58:31.128Z,1.27
